createdAt,value
2022-11-03T00:02:22.578Z,100677.50
2022-11-03T00:04:51.234Z,100670.38
2022-11-03T00:07:23.559Z,100671.25
2022-11-03T00:09:51.954Z,100672.97
2022-11-03T00:12:19.310Z,100674.69
2022-11-03T00:14:48.406Z,100664.44
2022-11-03T00:17:16.915Z,100671.97
2022-11-03T00:19:44.226Z,100677.78
2022-11-03T00:22:12.553Z,100665.16
2022-11-03T00:24:41.745Z,100667.97
2022-11-03T00:27:09.087Z,100673.53
2022-11-03T00:29:37.318Z,100664.22
2022-11-03T00:32:05.939Z,100673.69
2022-11-03T00:34:33.702Z,100672.16
2022-11-03T00:37:01.537Z,100672.44
2022-11-03T00:39:30.065Z,100663.09
2022-11-03T00:41:58.699Z,100670.44
2022-11-03T00:44:27.450Z,100666.12
2022-11-03T00:46:55.620Z,100678.97
2022-11-03T00:49:23.380Z,100677.78
2022-11-03T00:51:51.192Z,100664.84
2022-11-03T00:54:20.590Z,100675.69
2022-11-03T00:56:49.705Z,100672.25
2022-11-03T00:59:18.276Z,100674.81
2022-11-03T01:01:47.930Z,100676.47
2022-11-03T01:04:36.511Z,100671.37
2022-11-03T01:07:06.396Z,100661.44
2022-11-03T01:09:41.896Z,100661.13
2022-11-03T01:12:15.861Z,100661.81
2022-11-03T01:14:49.049Z,100659.88
2022-11-03T01:17:25.405Z,100653.13
2022-11-03T01:19:54.750Z,100647.56
2022-11-03T01:22:23.549Z,100652.81
2022-11-03T01:24:54.568Z,100652.19
2022-11-03T01:27:23.473Z,100653.38
2022-11-03T01:29:51.523Z,100634.09
2022-11-03T01:32:19.671Z,100629.56
2022-11-03T01:34:48.537Z,100641.75
2022-11-03T01:37:16.645Z,100633.66
2022-11-03T01:39:44.889Z,100634.41
2022-11-03T01:42:14.620Z,100628.81
2022-11-03T01:44:48.893Z,100628.13
2022-11-03T01:47:29.377Z,100634.69
2022-11-03T01:50:19.626Z,100635.00
2022-11-03T01:52:55.696Z,100630.63
2022-11-03T01:55:28.473Z,100632.75
2022-11-03T01:58:04.565Z,100629.03
2022-11-03T02:00:34.762Z,100625.03
2022-11-03T02:03:04.511Z,100627.37
2022-11-03T02:05:34.204Z,100624.44
2022-11-03T02:10:42.803Z,100633.19
2022-11-03T02:13:20.654Z,100635.22
2022-11-03T02:15:50.488Z,100627.50
2022-11-03T02:18:23.859Z,100630.91
2022-11-03T02:21:18.083Z,100637.22
2022-11-03T02:24:16.141Z,100634.38
2022-11-03T02:26:48.676Z,100642.06
2022-11-03T02:29:19.070Z,100648.22
2022-11-03T02:31:59.545Z,100647.72
2022-11-03T02:35:01.274Z,100642.41
2022-11-03T02:37:35.792Z,100640.53
2022-11-03T02:40:07.997Z,100650.19
2022-11-03T02:42:37.105Z,100654.88
2022-11-03T02:45:13.325Z,100648.59
2022-11-03T02:47:45.577Z,100649.41
2022-11-03T02:50:13.865Z,100640.50
2022-11-03T02:52:47.390Z,100648.66
2022-11-03T02:55:23.583Z,100647.31
2022-11-03T02:58:06.170Z,100632.53
2022-11-03T03:01:02.363Z,100634.09
2022-11-03T03:03:38.922Z,100636.41
2022-11-03T03:06:11.270Z,100632.84
2022-11-03T03:08:43.684Z,100632.16
2022-11-03T03:11:14.806Z,100627.81
2022-11-03T03:13:44.811Z,100635.62
2022-11-03T03:16:36.028Z,100633.56
2022-11-03T03:19:16.455Z,100627.78
2022-11-03T03:21:46.612Z,100628.94
2022-11-03T03:24:37.648Z,100635.47
2022-11-03T03:27:11.121Z,100637.69
2022-11-03T03:29:59.497Z,100628.34
2022-11-03T03:32:29.163Z,100626.63
2022-11-03T03:34:57.835Z,100635.19
2022-11-03T03:37:26.848Z,100636.84
2022-11-03T03:40:01.357Z,100637.63
2022-11-03T03:42:31.312Z,100634.44
2022-11-03T03:45:00.605Z,100634.34
2022-11-03T03:47:33.325Z,100633.94
2022-11-03T03:50:01.792Z,100642.69
2022-11-03T03:52:30.212Z,100637.53
2022-11-03T03:54:57.784Z,100629.87
2022-11-03T03:57:28.767Z,100641.59
2022-11-03T03:59:58.134Z,100637.69
2022-11-03T04:02:25.842Z,100636.09
2022-11-03T04:04:53.996Z,100637.63
2022-11-03T04:07:43.814Z,100652.50
2022-11-03T04:10:11.644Z,100653.16
2022-11-03T04:13:16.921Z,100646.00
2022-11-03T04:16:04.131Z,100653.75
2022-11-03T04:18:50.855Z,100645.22
2022-11-03T04:21:37.653Z,100652.97
2022-11-03T04:24:06.498Z,100647.00
2022-11-03T04:26:34.786Z,100646.41
2022-11-03T04:29:02.356Z,100643.66
2022-11-03T04:31:31.687Z,100634.47
2022-11-03T04:33:59.768Z,100637.22
2022-11-03T04:36:28.101Z,100645.38
2022-11-03T04:38:56.659Z,100646.97
2022-11-03T04:41:30.548Z,100645.34
2022-11-03T04:43:58.833Z,100644.56
2022-11-03T04:46:29.128Z,100646.78
2022-11-03T04:49:00.098Z,100660.50
2022-11-03T04:51:31.822Z,100643.91
2022-11-03T04:54:11.907Z,100648.50
2022-11-03T04:56:41.463Z,100644.75
2022-11-03T04:59:14.032Z,100646.75
2022-11-03T05:01:44.308Z,100653.50
2022-11-03T05:04:15.020Z,100656.66
2022-11-03T05:07:03.555Z,100646.75
2022-11-03T05:09:32.033Z,100645.62
2022-11-03T05:12:01.075Z,100657.81
2022-11-03T05:14:30.339Z,100653.53
2022-11-03T05:16:58.807Z,100655.66
2022-11-03T05:19:39.454Z,100647.59
2022-11-03T05:22:15.089Z,100649.47
2022-11-03T05:24:42.734Z,100640.19
2022-11-03T05:27:19.684Z,100647.47
2022-11-03T05:29:48.809Z,100643.34
2022-11-03T05:32:25.120Z,100648.28
2022-11-03T05:34:55.894Z,100654.34
2022-11-03T05:37:26.742Z,100661.56
2022-11-03T05:39:59.031Z,100655.81
2022-11-03T05:42:41.822Z,100655.69
2022-11-03T05:45:23.763Z,100661.16
2022-11-03T05:47:55.246Z,100662.44
2022-11-03T05:50:26.574Z,100656.03
2022-11-03T05:53:16.979Z,100661.91
2022-11-03T05:55:45.382Z,100657.19
2022-11-03T05:58:24.303Z,100656.59
2022-11-03T06:00:54.219Z,100665.56
2022-11-03T06:03:29.404Z,100671.69
2022-11-03T06:05:57.648Z,100687.22
2022-11-03T06:08:34.179Z,100693.34
2022-11-03T06:11:05.373Z,100685.00
2022-11-03T06:13:37.354Z,100690.47
2022-11-03T06:16:38.301Z,100685.38
2022-11-03T06:19:20.343Z,100690.03
2022-11-03T06:21:50.639Z,100693.50
2022-11-03T06:24:22.465Z,100697.78
2022-11-03T06:26:53.379Z,100702.19
2022-11-03T06:29:22.786Z,100708.94
2022-11-03T06:31:55.304Z,100710.78
2022-11-03T06:34:44.199Z,100713.44
2022-11-03T06:37:27.511Z,100714.31
2022-11-03T06:39:59.624Z,100714.87
2022-11-03T06:42:32.367Z,100715.31
2022-11-03T06:45:04.245Z,100716.25
2022-11-03T06:47:33.177Z,100713.09
2022-11-03T06:50:01.664Z,100720.47
2022-11-03T06:52:32.403Z,100719.84
2022-11-03T06:55:16.742Z,100714.63
2022-11-03T06:57:48.345Z,100712.66
2022-11-03T07:00:40.420Z,100710.22
2022-11-03T07:03:33.788Z,100720.56
2022-11-03T07:06:14.314Z,100724.13
2022-11-03T07:08:47.230Z,100725.28
2022-11-03T07:11:20.577Z,100718.31
2022-11-03T07:13:54.611Z,100720.78
2022-11-03T07:16:38.665Z,100721.25
2022-11-03T07:19:23.232Z,100725.66
2022-11-03T07:21:54.172Z,100723.66
2022-11-03T07:24:27.432Z,100721.78
2022-11-03T07:27:20.924Z,100722.59
2022-11-03T07:29:50.990Z,100727.69
2022-11-03T07:32:31.455Z,100734.44
2022-11-03T07:35:18.847Z,100730.75
2022-11-03T07:37:48.004Z,100721.53
2022-11-03T07:40:23.986Z,100720.19
2022-11-03T07:42:58.997Z,100713.19
2022-11-03T07:45:53.222Z,100717.78
2022-11-03T07:48:25.086Z,100719.47
2022-11-03T07:50:56.728Z,100714.22
2022-11-03T07:53:36.395Z,100709.22
2022-11-03T07:56:21.450Z,100708.09
2022-11-03T07:58:56.974Z,100705.31
2022-11-03T08:01:32.811Z,100704.87
2022-11-03T08:04:06.189Z,100706.00
2022-11-03T08:06:33.655Z,100692.41
2022-11-03T08:09:02.062Z,100700.25
2022-11-03T08:11:30.858Z,100695.97
2022-11-03T08:14:00.179Z,100692.34
2022-11-03T08:16:30.721Z,100695.34
2022-11-03T08:19:00.519Z,100693.50
2022-11-03T08:21:30.489Z,100693.78
2022-11-03T08:24:00.415Z,100694.94
2022-11-03T08:26:29.502Z,100698.88
2022-11-03T08:28:56.946Z,100694.37
2022-11-03T08:31:25.031Z,100695.06
2022-11-03T08:33:55.234Z,100691.34
2022-11-03T08:36:26.005Z,100693.81
2022-11-03T08:38:55.546Z,100693.69
2022-11-03T08:41:23.835Z,100700.97
2022-11-03T08:43:52.144Z,100697.22
2022-11-03T08:46:22.002Z,100685.19
2022-11-03T08:48:52.097Z,100685.00
2022-11-03T08:51:22.540Z,100680.41
2022-11-03T08:53:54.010Z,100680.56
2022-11-03T08:56:22.875Z,100681.94
2022-11-03T08:58:56.416Z,100679.31
2022-11-03T09:01:26.183Z,100671.59
2022-11-03T09:03:55.042Z,100676.84
2022-11-03T09:06:24.390Z,100671.37
2022-11-03T09:11:44.303Z,100674.37
2022-11-03T09:14:23.188Z,100667.91
2022-11-03T09:16:51.904Z,100668.75
2022-11-03T09:19:20.970Z,100665.47
2022-11-03T09:21:49.989Z,100666.41
2022-11-03T09:24:19.549Z,100668.22
2022-11-03T09:26:51.904Z,100666.81
2022-11-03T09:29:21.151Z,100660.25
2022-11-03T09:31:50.500Z,100658.31
2022-11-03T09:34:19.252Z,100659.44
2022-11-03T09:36:52.137Z,100658.16
2022-11-03T09:39:22.661Z,100659.41
2022-11-03T09:41:58.465Z,100654.00
2022-11-03T09:44:27.928Z,100647.41
2022-11-03T09:46:58.472Z,100648.97
2022-11-03T09:49:28.900Z,100648.50
2022-11-03T09:51:57.818Z,100640.16
2022-11-03T09:54:27.790Z,100638.03
2022-11-03T09:57:06.230Z,100632.25
2022-11-03T09:59:35.422Z,100630.09
2022-11-03T10:02:39.297Z,100623.03
2022-11-03T10:05:11.295Z,100625.50
2022-11-03T10:07:39.984Z,100618.75
2022-11-03T10:10:16.516Z,100611.59
2022-11-03T10:12:46.999Z,100606.75
2022-11-03T10:15:17.878Z,100602.13
2022-11-03T10:17:47.201Z,100602.41
2022-11-03T10:20:18.618Z,100591.72
2022-11-03T10:22:48.836Z,100595.56
2022-11-03T10:25:39.574Z,100584.28
2022-11-03T10:28:22.866Z,100590.31
2022-11-03T10:31:11.156Z,100578.78
2022-11-03T10:33:52.279Z,100581.84
2022-11-03T10:36:25.745Z,100577.19
2022-11-03T10:38:55.511Z,100575.63
2022-11-03T10:41:30.430Z,100576.75
2022-11-03T10:44:19.084Z,100564.31
2022-11-03T10:47:01.568Z,100559.84
2022-11-03T10:49:33.887Z,100557.47
2022-11-03T10:52:29.818Z,100551.53
2022-11-03T10:54:59.215Z,100548.13
2022-11-03T10:57:29.660Z,100543.19
2022-11-03T10:59:59.604Z,100537.34
2022-11-03T11:02:32.250Z,100541.34
2022-11-03T11:05:02.227Z,100544.59
2022-11-03T11:07:34.049Z,100527.41
2022-11-03T11:10:08.768Z,100529.94
2022-11-03T11:12:36.259Z,100520.69
2022-11-03T11:15:37.430Z,100523.06
2022-11-03T11:18:06.781Z,100514.22
2022-11-03T11:20:41.792Z,100514.56
2022-11-03T11:23:29.891Z,100513.94
2022-11-03T11:26:09.191Z,100511.03
2022-11-03T11:29:09.906Z,100502.41
2022-11-03T11:31:46.029Z,100499.22
2022-11-03T11:34:18.146Z,100495.81
2022-11-03T11:37:07.741Z,100485.78
2022-11-03T11:39:44.369Z,100486.94
2022-11-03T11:42:21.073Z,100489.34
2022-11-03T11:44:58.270Z,100479.22
2022-11-03T11:47:45.694Z,100476.19
2022-11-03T11:50:19.619Z,100472.59
2022-11-03T11:52:51.965Z,100473.59
2022-11-03T11:55:31.517Z,100476.66
2022-11-03T11:58:03.604Z,100471.41
2022-11-03T12:00:35.985Z,100456.94
2022-11-03T12:03:07.935Z,100450.87
2022-11-03T12:05:36.688Z,100445.16
2022-11-03T12:08:23.045Z,100449.97
2022-11-03T12:10:56.433Z,100438.41
2022-11-03T12:13:53.935Z,100435.97
2022-11-03T12:16:39.619Z,100429.22
2022-11-03T12:19:38.519Z,100432.56
2022-11-03T12:22:09.407Z,100428.44
2022-11-03T12:24:49.783Z,100423.75
2022-11-03T12:27:25.548Z,100427.97
2022-11-03T12:30:13.008Z,100419.28
2022-11-03T12:32:42.060Z,100410.53
2022-11-03T12:35:14.356Z,100409.66
2022-11-03T12:37:42.978Z,100403.00
2022-11-03T12:40:14.334Z,100410.66
2022-11-03T12:42:45.134Z,100412.41
2022-11-03T12:45:15.269Z,100400.16
2022-11-03T12:47:45.109Z,100407.41
2022-11-03T12:50:33.256Z,100399.78
2022-11-03T12:53:01.721Z,100394.41
2022-11-03T12:55:31.553Z,100390.94
2022-11-03T12:58:01.752Z,100393.31
2022-11-03T13:00:30.437Z,100392.28
2022-11-03T13:03:06.721Z,100392.03
2022-11-03T13:05:37.146Z,100386.56
2022-11-03T13:08:06.279Z,100388.22
2022-11-03T13:10:34.675Z,100379.69
2022-11-03T13:13:03.695Z,100384.06
2022-11-03T13:15:33.225Z,100380.81
2022-11-03T13:18:16.324Z,100374.34
2022-11-03T13:20:45.310Z,100376.97
2022-11-03T13:23:17.475Z,100370.34
2022-11-03T13:25:50.367Z,100361.00
2022-11-03T13:28:18.376Z,100354.63
2022-11-03T13:30:47.890Z,100355.91
2022-11-03T13:33:16.751Z,100357.44
2022-11-03T13:35:44.318Z,100356.13
2022-11-03T13:38:12.018Z,100355.78
2022-11-03T13:40:59.355Z,100352.91
2022-11-03T13:43:29.579Z,100349.91
2022-11-03T13:46:02.236Z,100338.63
2022-11-03T13:49:23.423Z,100350.62
2022-11-03T13:51:21.697Z,100349.22
2022-11-03T13:59:30.094Z,100345.44
2022-11-03T14:04:50.308Z,100341.78
2022-11-03T14:07:17.947Z,100336.28
2022-11-03T14:09:47.561Z,100334.66
2022-11-03T14:12:31.564Z,100336.19
2022-11-03T14:15:06.546Z,100335.31
2022-11-03T14:17:36.193Z,100326.28
2022-11-03T14:20:07.671Z,100330.75
2022-11-03T14:22:35.754Z,100328.63
2022-11-03T14:25:06.363Z,100321.91
2022-11-03T14:27:34.789Z,100328.56
2022-11-03T14:30:04.517Z,100327.44
2022-11-03T14:32:32.811Z,100329.50
2022-11-03T14:35:02.349Z,100327.75
2022-11-03T14:37:33.138Z,100328.13
2022-11-03T14:40:02.108Z,100324.63
2022-11-03T14:42:29.723Z,100328.19
2022-11-03T14:44:59.869Z,100318.03
2022-11-03T14:47:31.796Z,100320.19
2022-11-03T14:50:00.016Z,100318.66
2022-11-03T14:52:28.893Z,100313.09
2022-11-03T14:54:57.150Z,100314.22
2022-11-03T14:57:26.543Z,100310.59
2022-11-03T14:59:56.344Z,100306.47
2022-11-03T15:02:25.323Z,100308.88
2022-11-03T15:05:33.055Z,100320.50
2022-11-03T15:08:03.316Z,100300.84
2022-11-03T15:10:31.851Z,100301.75
2022-11-03T15:13:00.762Z,100295.88
2022-11-03T15:15:29.675Z,100288.66
2022-11-03T15:18:02.810Z,100288.81
2022-11-03T15:20:36.609Z,100281.69
2022-11-03T15:26:06.414Z,100274.06
2022-11-03T15:28:35.202Z,100273.94
2022-11-03T15:31:05.687Z,100262.75
2022-11-03T15:33:41.113Z,100269.34
2022-11-03T15:36:10.413Z,100275.06
2022-11-03T15:38:39.449Z,100274.59
2022-11-03T15:41:16.260Z,100277.44
2022-11-03T15:43:47.430Z,100277.13
2022-11-03T15:46:19.000Z,100272.53
2022-11-03T15:48:49.598Z,100282.19
2022-11-03T15:51:18.379Z,100281.22
2022-11-03T15:53:50.220Z,100277.50
2022-11-03T15:56:20.577Z,100276.81
2022-11-03T15:58:48.785Z,100276.53
2022-11-03T16:01:19.054Z,100263.06
2022-11-03T16:03:48.994Z,100268.75
2022-11-03T16:06:17.744Z,100262.06
2022-11-03T16:08:47.941Z,100257.06
2022-11-03T16:11:16.760Z,100255.03
2022-11-03T16:13:45.793Z,100249.81
2022-11-03T16:16:13.478Z,100257.97
2022-11-03T16:18:44.081Z,100253.38
2022-11-03T16:21:13.086Z,100255.16
2022-11-03T16:23:43.823Z,100250.03
2022-11-03T16:26:11.344Z,100249.34
2022-11-03T16:28:40.204Z,100241.03
2022-11-03T16:31:09.118Z,100248.78
2022-11-03T16:33:37.328Z,100243.25
2022-11-03T16:36:05.618Z,100234.66
2022-11-03T16:38:34.742Z,100238.47
2022-11-03T16:41:05.607Z,100242.09
2022-11-03T16:43:34.880Z,100244.41
2022-11-03T16:46:04.906Z,100251.94
2022-11-03T16:48:34.355Z,100249.12
2022-11-03T16:51:04.186Z,100246.75
2022-11-03T16:53:33.040Z,100247.44
2022-11-03T16:56:01.099Z,100250.16
2022-11-03T16:58:30.500Z,100246.81
2022-11-03T17:00:58.753Z,100245.66
2022-11-03T17:03:29.200Z,100254.28
2022-11-03T17:05:59.132Z,100246.94
2022-11-03T17:08:53.852Z,100254.28
2022-11-03T17:11:36.920Z,100263.66
2022-11-03T17:14:09.048Z,100267.19
2022-11-03T17:16:38.947Z,100258.03
2022-11-03T17:19:08.583Z,100257.25
2022-11-03T17:21:37.723Z,100251.97
2022-11-03T17:24:07.408Z,100257.66
2022-11-03T17:26:51.947Z,100245.91
2022-11-03T17:29:24.046Z,100248.25
2022-11-03T17:31:56.605Z,100238.81
2022-11-03T17:34:32.369Z,100232.34
2022-11-03T17:37:02.213Z,100222.34
2022-11-03T17:39:41.322Z,100220.34
2022-11-03T17:42:24.666Z,100223.97
2022-11-03T17:44:55.976Z,100221.72
2022-11-03T17:47:29.682Z,100220.28
2022-11-03T17:50:01.185Z,100213.41
2022-11-03T17:52:32.992Z,100205.91
2022-11-03T17:55:06.472Z,100200.16
2022-11-03T17:57:38.300Z,100193.37
2022-11-03T18:00:10.779Z,100193.53
2022-11-03T18:02:40.945Z,100177.50
2022-11-03T18:05:27.782Z,100173.28
2022-11-03T18:08:00.531Z,100166.91
2022-11-03T18:10:39.246Z,100173.69
2022-11-03T18:13:16.789Z,100168.38
2022-11-03T18:15:59.080Z,100159.56
2022-11-03T18:18:44.355Z,100150.75
2022-11-03T18:21:19.817Z,100147.41
2022-11-03T18:23:48.821Z,100136.50
2022-11-03T18:26:27.284Z,100131.91
2022-11-03T18:28:57.787Z,100132.13
2022-11-03T18:31:36.205Z,100138.78
2022-11-03T18:34:09.603Z,100135.31
2022-11-03T18:36:39.152Z,100124.91
2022-11-03T18:39:16.908Z,100123.72
2022-11-03T18:41:47.676Z,100124.09
2022-11-03T18:44:19.717Z,100114.97
2022-11-03T18:46:51.516Z,100117.25
2022-11-03T18:49:21.740Z,100108.03
2022-11-03T18:52:00.861Z,100116.09
2022-11-03T18:54:33.968Z,100120.69
2022-11-03T18:57:05.407Z,100108.09
2022-11-03T18:59:38.690Z,100103.75
2022-11-03T19:02:22.705Z,100102.16
2022-11-03T19:04:55.708Z,100098.56
2022-11-03T19:07:38.280Z,100100.72
2022-11-03T19:10:23.655Z,100089.25
2022-11-03T19:12:54.720Z,100091.91
2022-11-03T19:15:25.957Z,100072.41
2022-11-03T19:17:58.277Z,100074.09
2022-11-03T19:20:28.298Z,100063.91
2022-11-03T19:22:57.754Z,100047.13
2022-11-03T19:25:27.901Z,100043.13
2022-11-03T19:27:56.865Z,100043.16
2022-11-03T19:30:26.337Z,100041.16
2022-11-03T19:32:56.505Z,100049.38
2022-11-03T19:35:36.878Z,100044.19
2022-11-03T19:38:14.716Z,100043.22
2022-11-03T19:41:14.591Z,100043.72
2022-11-03T19:43:44.388Z,100037.44
2022-11-03T19:46:20.225Z,100034.84
2022-11-03T19:48:51.481Z,100034.06
2022-11-03T19:51:22.777Z,100020.13
2022-11-03T19:53:55.251Z,100022.06
2022-11-03T19:56:23.549Z,100022.38
2022-11-03T19:58:55.636Z,100021.72
2022-11-03T20:01:28.548Z,100016.75
2022-11-03T20:04:00.244Z,100017.91
2022-11-03T20:06:31.069Z,100015.09
2022-11-03T20:09:04.414Z,100010.50
2022-11-03T20:11:36.393Z,100012.12
2022-11-03T20:14:06.781Z,99997.25
2022-11-03T20:16:37.311Z,100002.44
2022-11-03T20:19:10.230Z,99990.12
2022-11-03T20:21:40.012Z,99980.59
2022-11-03T20:24:13.152Z,99979.38
2022-11-03T20:26:43.227Z,99977.72
2022-11-03T20:29:15.325Z,99982.12
2022-11-03T20:31:45.212Z,99985.59
2022-11-03T20:34:15.697Z,99981.31
2022-11-03T20:36:48.293Z,99974.59
2022-11-03T20:39:22.170Z,99972.66
2022-11-03T20:41:54.104Z,99958.91
2022-11-03T20:44:25.072Z,99954.09
2022-11-03T20:46:54.874Z,99965.59
2022-11-03T20:49:34.095Z,99962.19
2022-11-03T20:52:04.660Z,99965.22
2022-11-03T20:54:35.929Z,99960.38
2022-11-03T20:57:05.771Z,99955.25
2022-11-03T20:59:38.862Z,99944.31
2022-11-03T21:02:12.790Z,99955.31
2022-11-03T21:04:45.785Z,99956.09
2022-11-03T21:07:16.366Z,99955.09
2022-11-03T21:09:45.025Z,99961.69
2022-11-03T21:12:16.077Z,99957.03
2022-11-03T21:15:04.910Z,99953.03
2022-11-03T21:17:53.838Z,99958.56
2022-11-03T21:20:22.051Z,99955.63
2022-11-03T21:22:53.428Z,99953.66
2022-11-03T21:25:24.599Z,99947.09
2022-11-03T21:27:55.042Z,99951.47
2022-11-03T21:30:26.094Z,99946.16
2022-11-03T21:32:56.203Z,99940.59
2022-11-03T21:35:27.821Z,99940.16
2022-11-03T21:37:57.547Z,99939.16
2022-11-03T21:40:26.163Z,99932.34
2022-11-03T21:43:13.847Z,99932.34
2022-11-03T21:45:44.902Z,99932.63
2022-11-03T21:48:32.403Z,99925.97
2022-11-03T21:51:20.409Z,99928.66
2022-11-03T21:53:49.426Z,99927.66
2022-11-03T21:56:18.423Z,99920.53
2022-11-03T21:58:47.632Z,99916.31
2022-11-03T22:01:17.383Z,99909.84
2022-11-03T22:03:46.592Z,99890.28
2022-11-03T22:06:14.585Z,99890.78
2022-11-03T22:08:45.060Z,99877.19
2022-11-03T22:11:24.844Z,99862.38
2022-11-03T22:13:59.377Z,99857.47
2022-11-03T22:16:39.735Z,99857.81
2022-11-03T22:19:35.244Z,99854.88
2022-11-03T22:22:30.722Z,99855.00
2022-11-03T22:25:17.276Z,99853.84
2022-11-03T22:27:47.737Z,99846.72
2022-11-03T22:30:37.142Z,99839.56
2022-11-03T22:33:05.728Z,99837.91
2022-11-03T22:35:53.822Z,99839.13
2022-11-03T22:38:45.182Z,99839.28
2022-11-03T22:41:45.785Z,99828.19
2022-11-03T22:44:33.012Z,99823.94
2022-11-03T22:47:03.215Z,99825.37
2022-11-03T22:49:32.875Z,99827.38
2022-11-03T22:52:03.409Z,99828.00
2022-11-03T22:54:33.075Z,99817.78
2022-11-03T22:57:02.895Z,99817.47
2022-11-03T22:59:36.667Z,99818.94
2022-11-03T23:02:06.773Z,99812.53
2022-11-03T23:04:37.711Z,99811.44
2022-11-03T23:07:08.493Z,99815.19
2022-11-03T23:09:38.039Z,99816.31
2022-11-03T23:12:11.716Z,99820.19
2022-11-03T23:15:00.466Z,99815.84
2022-11-03T23:17:49.156Z,99810.66
2022-11-03T23:20:38.066Z,99799.28
2022-11-03T23:23:06.310Z,99795.63
2022-11-03T23:25:34.873Z,99790.75
2022-11-03T23:28:05.620Z,99799.47
2022-11-03T23:30:35.452Z,99796.94
2022-11-03T23:33:04.303Z,99789.09
2022-11-03T23:35:34.245Z,99779.97
2022-11-03T23:38:04.567Z,99783.97
2022-11-03T23:40:35.177Z,99778.94
2022-11-03T23:43:06.185Z,99777.59
2022-11-03T23:45:55.013Z,99764.16
2022-11-03T23:48:42.613Z,99752.97
2022-11-03T23:51:17.476Z,99758.38
2022-11-03T23:53:48.711Z,99748.63
2022-11-03T23:56:38.640Z,99749.22
2022-11-03T23:59:10.151Z,99750.72
